sensor_id;sensor_type;location;lat;lon;timestamp;P1;durP1;ratioP1;P2;durP2;ratioP2
80344;SDS011;69658;44.498;0.166;2023-08-06T00:11:03;9.17;;;1.77;;
80344;SDS011;69658;44.498;0.166;2023-08-06T00:16:35;12.43;;;2.17;;
80344;SDS011;69658;44.498;0.166;2023-08-06T00:22:08;5.80;;;1.20;;
80344;SDS011;69658;44.498;0.166;2023-08-06T00:27:40;10.50;;;1.60;;
80344;SDS011;69658;44.498;0.166;2023-08-06T00:33:13;15.87;;;1.97;;
80344;SDS011;69658;44.498;0.166;2023-08-06T00:38:45;12.40;;;2.47;;
80344;SDS011;69658;44.498;0.166;2023-08-06T00:44:17;12.60;;;1.80;;
80344;SDS011;69658;44.498;0.166;2023-08-06T00:49:49;12.93;;;1.70;;
80344;SDS011;69658;44.498;0.166;2023-08-06T00:55:22;9.73;;;1.60;;
80344;SDS011;69658;44.498;0.166;2023-08-06T01:00:55;13.70;;;1.83;;
80344;SDS011;69658;44.498;0.166;2023-08-06T01:06:32;7.83;;;1.40;;
80344;SDS011;69658;44.498;0.166;2023-08-06T01:12:04;13.30;;;1.53;;
80344;SDS011;69658;44.498;0.166;2023-08-06T01:17:35;6.13;;;1.20;;
80344;SDS011;69658;44.498;0.166;2023-08-06T01:23:07;8.17;;;1.40;;
80344;SDS011;69658;44.498;0.166;2023-08-06T01:28:42;9.03;;;1.17;;
80344;SDS011;69658;44.498;0.166;2023-08-06T01:34:15;12.87;;;1.50;;
80344;SDS011;69658;44.498;0.166;2023-08-06T01:39:47;8.87;;;1.43;;
80344;SDS011;69658;44.498;0.166;2023-08-06T01:45:19;15.77;;;1.80;;
80344;SDS011;69658;44.498;0.166;2023-08-06T01:50:51;14.60;;;2.00;;
80344;SDS011;69658;44.498;0.166;2023-08-06T01:56:25;9.67;;;1.73;;
80344;SDS011;69658;44.498;0.166;2023-08-06T02:01:58;11.33;;;2.00;;
80344;SDS011;69658;44.498;0.166;2023-08-06T02:07:30;7.90;;;1.50;;
80344;SDS011;69658;44.498;0.166;2023-08-06T02:13:02;14.77;;;2.57;;
80344;SDS011;69658;44.498;0.166;2023-08-06T02:18:35;15.30;;;1.90;;
80344;SDS011;69658;44.498;0.166;2023-08-06T02:24:07;13.37;;;2.37;;
80344;SDS011;69658;44.498;0.166;2023-08-06T02:29:41;14.13;;;1.87;;
80344;SDS011;69658;44.498;0.166;2023-08-06T02:35:12;11.47;;;2.00;;
80344;SDS011;69658;44.498;0.166;2023-08-06T02:40:46;14.63;;;1.67;;
80344;SDS011;69658;44.498;0.166;2023-08-06T02:46:18;12.47;;;1.40;;
80344;SDS011;69658;44.498;0.166;2023-08-06T02:51:50;14.07;;;1.53;;
80344;SDS011;69658;44.498;0.166;2023-08-06T02:57:23;9.43;;;1.70;;
80344;SDS011;69658;44.498;0.166;2023-08-06T03:02:57;14.67;;;1.97;;
80344;SDS011;69658;44.498;0.166;2023-08-06T03:08:31;15.27;;;1.50;;
80344;SDS011;69658;44.498;0.166;2023-08-06T03:14:03;14.77;;;1.50;;
80344;SDS011;69658;44.498;0.166;2023-08-06T03:19:36;13.53;;;1.90;;
80344;SDS011;69658;44.498;0.166;2023-08-06T03:25:09;8.87;;;2.00;;
80344;SDS011;69658;44.498;0.166;2023-08-06T03:30:42;6.97;;;1.47;;
80344;SDS011;69658;44.498;0.166;2023-08-06T03:47:19;14.43;;;2.27;;
80344;SDS011;69658;44.498;0.166;2023-08-06T03:52:52;11.13;;;2.17;;
80344;SDS011;69658;44.498;0.166;2023-08-06T03:58:25;12.27;;;1.67;;
80344;SDS011;69658;44.498;0.166;2023-08-06T04:03:58;14.17;;;1.90;;
80344;SDS011;69658;44.498;0.166;2023-08-06T04:09:30;8.80;;;1.57;;
80344;SDS011;69658;44.498;0.166;2023-08-06T04:15:04;7.63;;;1.20;;
80344;SDS011;69658;44.498;0.166;2023-08-06T04:20:36;11.20;;;1.63;;
80344;SDS011;69658;44.498;0.166;2023-08-06T04:26:07;22.80;;;2.13;;
80344;SDS011;69658;44.498;0.166;2023-08-06T04:31:40;11.40;;;1.20;;
80344;SDS011;69658;44.498;0.166;2023-08-06T04:37:12;10.63;;;1.37;;
80344;SDS011;69658;44.498;0.166;2023-08-06T04:42:45;8.13;;;1.37;;
80344;SDS011;69658;44.498;0.166;2023-08-06T04:48:18;7.77;;;1.43;;
80344;SDS011;69658;44.498;0.166;2023-08-06T04:53:50;9.23;;;1.30;;
80344;SDS011;69658;44.498;0.166;2023-08-06T04:59:24;14.30;;;2.07;;
80344;SDS011;69658;44.498;0.166;2023-08-06T05:04:57;10.30;;;1.70;;
80344;SDS011;69658;44.498;0.166;2023-08-06T05:10:29;12.63;;;1.17;;
80344;SDS011;69658;44.498;0.166;2023-08-06T05:16:02;10.70;;;1.13;;
80344;SDS011;69658;44.498;0.166;2023-08-06T05:21:34;10.73;;;1.03;;
80344;SDS011;69658;44.498;0.166;2023-08-06T05:38:12;12.37;;;1.73;;
80344;SDS011;69658;44.498;0.166;2023-08-06T05:43:45;10.07;;;1.27;;
80344;SDS011;69658;44.498;0.166;2023-08-06T05:49:19;11.53;;;1.30;;
80344;SDS011;69658;44.498;0.166;2023-08-06T05:54:52;6.57;;;1.20;;
80344;SDS011;69658;44.498;0.166;2023-08-06T06:00:24;13.10;;;1.70;;
80344;SDS011;69658;44.498;0.166;2023-08-06T06:05:58;12.43;;;1.77;;
80344;SDS011;69658;44.498;0.166;2023-08-06T06:11:30;11.77;;;1.30;;
80344;SDS011;69658;44.498;0.166;2023-08-06T06:17:03;13.47;;;1.33;;
80344;SDS011;69658;44.498;0.166;2023-08-06T06:22:36;13.50;;;1.53;;
80344;SDS011;69658;44.498;0.166;2023-08-06T06:28:10;12.40;;;2.10;;
80344;SDS011;69658;44.498;0.166;2023-08-06T06:33:42;20.63;;;1.83;;
80344;SDS011;69658;44.498;0.166;2023-08-06T06:39:15;13.33;;;1.67;;
80344;SDS011;69658;44.498;0.166;2023-08-06T06:44:47;8.70;;;1.20;;
80344;SDS011;69658;44.498;0.166;2023-08-06T06:50:19;9.80;;;1.43;;
80344;SDS011;69658;44.498;0.166;2023-08-06T06:55:52;9.93;;;1.73;;
80344;SDS011;69658;44.498;0.166;2023-08-06T07:01:24;15.53;;;2.30;;
80344;SDS011;69658;44.498;0.166;2023-08-06T07:06:58;13.93;;;1.40;;
80344;SDS011;69658;44.498;0.166;2023-08-06T07:12:31;9.60;;;2.40;;
80344;SDS011;69658;44.498;0.166;2023-08-06T07:18:03;18.27;;;1.80;;
80344;SDS011;69658;44.498;0.166;2023-08-06T07:23:36;7.17;;;1.40;;
80344;SDS011;69658;44.498;0.166;2023-08-06T07:29:08;10.00;;;1.83;;
80344;SDS011;69658;44.498;0.166;2023-08-06T07:34:42;6.40;;;0.90;;
80344;SDS011;69658;44.498;0.166;2023-08-06T07:40:15;7.07;;;1.33;;
80344;SDS011;69658;44.498;0.166;2023-08-06T07:45:48;5.87;;;1.43;;
80344;SDS011;69658;44.498;0.166;2023-08-06T07:51:20;8.63;;;1.17;;
80344;SDS011;69658;44.498;0.166;2023-08-06T07:56:52;8.77;;;1.60;;
80344;SDS011;69658;44.498;0.166;2023-08-06T08:02:25;7.27;;;1.10;;
80344;SDS011;69658;44.498;0.166;2023-08-06T08:07:59;7.83;;;1.10;;
80344;SDS011;69658;44.498;0.166;2023-08-06T08:13:30;7.53;;;1.17;;
80344;SDS011;69658;44.498;0.166;2023-08-06T08:19:04;7.53;;;1.40;;
80344;SDS011;69658;44.498;0.166;2023-08-06T08:24:37;7.90;;;1.57;;
80344;SDS011;69658;44.498;0.166;2023-08-06T08:30:09;6.13;;;1.17;;
80344;SDS011;69658;44.498;0.166;2023-08-06T08:35:42;5.00;;;1.13;;
80344;SDS011;69658;44.498;0.166;2023-08-06T08:41:15;5.15;;;1.10;;
80344;SDS011;69658;44.498;0.166;2023-08-06T08:46:48;4.13;;;1.23;;
80344;SDS011;69658;44.498;0.166;2023-08-06T08:52:21;8.23;;;1.23;;
80344;SDS011;69658;44.498;0.166;2023-08-06T08:57:53;10.97;;;1.40;;
80344;SDS011;69658;44.498;0.166;2023-08-06T09:03:26;5.63;;;1.27;;
80344;SDS011;69658;44.498;0.166;2023-08-06T09:09:01;6.67;;;1.17;;
80344;SDS011;69658;44.498;0.166;2023-08-06T09:14:33;6.63;;;0.87;;
80344;SDS011;69658;44.498;0.166;2023-08-06T09:20:10;4.23;;;0.93;;
80344;SDS011;69658;44.498;0.166;2023-08-06T09:25:38;3.43;;;0.80;;
80344;SDS011;69658;44.498;0.166;2023-08-06T09:31:11;5.17;;;1.00;;
80344;SDS011;69658;44.498;0.166;2023-08-06T09:36:42;5.20;;;1.40;;
80344;SDS011;69658;44.498;0.166;2023-08-06T09:42:15;6.33;;;1.00;;
80344;SDS011;69658;44.498;0.166;2023-08-06T09:47:49;3.17;;;0.80;;
80344;SDS011;69658;44.498;0.166;2023-08-06T09:53:21;4.40;;;0.73;;
80344;SDS011;69658;44.498;0.166;2023-08-06T10:04:28;4.03;;;0.73;;
80344;SDS011;69658;44.498;0.166;2023-08-06T10:10:02;2.27;;;0.80;;
80344;SDS011;69658;44.498;0.166;2023-08-06T10:15:33;5.17;;;1.00;;
80344;SDS011;69658;44.498;0.166;2023-08-06T10:21:07;3.73;;;0.73;;
80344;SDS011;69658;44.498;0.166;2023-08-06T10:26:37;3.10;;;0.60;;
80344;SDS011;69658;44.498;0.166;2023-08-06T10:32:10;2.67;;;0.73;;
80344;SDS011;69658;44.498;0.166;2023-08-06T10:37:44;5.07;;;0.67;;
80344;SDS011;69658;44.498;0.166;2023-08-06T10:48:49;5.47;;;1.17;;
80344;SDS011;69658;44.498;0.166;2023-08-06T10:54:21;4.47;;;0.60;;
80344;SDS011;69658;44.498;0.166;2023-08-06T10:59:53;5.37;;;1.00;;
80344;SDS011;69658;44.498;0.166;2023-08-06T11:05:27;4.77;;;0.80;;
80344;SDS011;69658;44.498;0.166;2023-08-06T11:16:30;4.30;;;0.77;;
80344;SDS011;69658;44.498;0.166;2023-08-06T11:22:04;6.37;;;0.80;;
80344;SDS011;69658;44.498;0.166;2023-08-06T11:27:38;4.00;;;0.77;;
80344;SDS011;69658;44.498;0.166;2023-08-06T11:33:10;3.97;;;0.90;;
80344;SDS011;69658;44.498;0.166;2023-08-06T11:38:41;4.50;;;0.70;;
80344;SDS011;69658;44.498;0.166;2023-08-06T11:44:15;3.33;;;0.87;;
80344;SDS011;69658;44.498;0.166;2023-08-06T11:49:48;3.43;;;0.60;;
80344;SDS011;69658;44.498;0.166;2023-08-06T11:55:22;5.63;;;1.27;;
80344;SDS011;69658;44.498;0.166;2023-08-06T12:00:53;10.80;;;4.53;;
80344;SDS011;69658;44.498;0.166;2023-08-06T12:06:27;7.00;;;2.20;;
80344;SDS011;69658;44.498;0.166;2023-08-06T12:11:58;8.37;;;2.90;;
80344;SDS011;69658;44.498;0.166;2023-08-06T12:17:31;4.57;;;1.50;;
80344;SDS011;69658;44.498;0.166;2023-08-06T12:23:03;4.17;;;0.97;;
80344;SDS011;69658;44.498;0.166;2023-08-06T12:28:35;1.87;;;0.70;;
80344;SDS011;69658;44.498;0.166;2023-08-06T12:34:09;3.87;;;0.60;;
80344;SDS011;69658;44.498;0.166;2023-08-06T12:39:41;6.03;;;1.63;;
80344;SDS011;69658;44.498;0.166;2023-08-06T12:45:15;2.27;;;0.80;;
80344;SDS011;69658;44.498;0.166;2023-08-06T12:50:50;7.27;;;1.60;;
80344;SDS011;69658;44.498;0.166;2023-08-06T12:56:20;3.17;;;0.87;;
80344;SDS011;69658;44.498;0.166;2023-08-06T13:01:53;3.87;;;0.80;;
80344;SDS011;69658;44.498;0.166;2023-08-06T13:07:26;2.63;;;0.90;;
80344;SDS011;69658;44.498;0.166;2023-08-06T13:18:31;4.43;;;0.73;;
80344;SDS011;69658;44.498;0.166;2023-08-06T13:24:03;3.33;;;0.60;;
80344;SDS011;69658;44.498;0.166;2023-08-06T13:29:36;3.40;;;0.90;;
80344;SDS011;69658;44.498;0.166;2023-08-06T13:35:08;3.13;;;0.93;;
80344;SDS011;69658;44.498;0.166;2023-08-06T13:40:41;2.53;;;0.77;;
80344;SDS011;69658;44.498;0.166;2023-08-06T13:46:17;2.37;;;0.50;;
80344;SDS011;69658;44.498;0.166;2023-08-06T13:51:47;4.87;;;0.97;;
80344;SDS011;69658;44.498;0.166;2023-08-06T13:57:20;5.70;;;1.37;;
80344;SDS011;69658;44.498;0.166;2023-08-06T14:02:52;3.30;;;0.70;;
80344;SDS011;69658;44.498;0.166;2023-08-06T14:08:26;5.17;;;0.90;;
80344;SDS011;69658;44.498;0.166;2023-08-06T14:19:30;1.80;;;0.53;;
80344;SDS011;69658;44.498;0.166;2023-08-06T14:25:02;2.80;;;0.80;;
80344;SDS011;69658;44.498;0.166;2023-08-06T14:30:36;2.33;;;0.60;;
80344;SDS011;69658;44.498;0.166;2023-08-06T14:36:07;3.80;;;0.80;;
80344;SDS011;69658;44.498;0.166;2023-08-06T14:41:40;2.03;;;0.53;;
80344;SDS011;69658;44.498;0.166;2023-08-06T14:47:13;4.27;;;1.10;;
80344;SDS011;69658;44.498;0.166;2023-08-06T14:52:47;2.43;;;0.87;;
80344;SDS011;69658;44.498;0.166;2023-08-06T14:58:19;2.50;;;0.70;;
80344;SDS011;69658;44.498;0.166;2023-08-06T15:03:52;3.13;;;0.70;;
80344;SDS011;69658;44.498;0.166;2023-08-06T15:09:25;2.60;;;0.80;;
80344;SDS011;69658;44.498;0.166;2023-08-06T15:14:58;1.27;;;0.50;;
80344;SDS011;69658;44.498;0.166;2023-08-06T15:20:30;2.57;;;0.70;;
80344;SDS011;69658;44.498;0.166;2023-08-06T15:26:04;3.83;;;0.73;;
80344;SDS011;69658;44.498;0.166;2023-08-06T15:37:09;2.30;;;0.63;;
80344;SDS011;69658;44.498;0.166;2023-08-06T15:42:42;6.60;;;0.90;;
80344;SDS011;69658;44.498;0.166;2023-08-06T15:48:15;1.60;;;0.43;;
80344;SDS011;69658;44.498;0.166;2023-08-06T15:53:47;3.90;;;0.77;;
80344;SDS011;69658;44.498;0.166;2023-08-06T15:59:21;2.63;;;1.07;;
80344;SDS011;69658;44.498;0.166;2023-08-06T16:04:52;2.27;;;0.60;;
80344;SDS011;69658;44.498;0.166;2023-08-06T16:10:26;3.13;;;0.60;;
80344;SDS011;69658;44.498;0.166;2023-08-06T16:15:59;2.93;;;0.87;;
80344;SDS011;69658;44.498;0.166;2023-08-06T16:21:33;2.90;;;0.60;;
80344;SDS011;69658;44.498;0.166;2023-08-06T16:27:05;3.30;;;0.60;;
80344;SDS011;69658;44.498;0.166;2023-08-06T16:32:38;3.37;;;0.77;;
80344;SDS011;69658;44.498;0.166;2023-08-06T16:38:12;1.20;;;0.63;;
80344;SDS011;69658;44.498;0.166;2023-08-06T16:43:45;4.67;;;0.90;;
80344;SDS011;69658;44.498;0.166;2023-08-06T16:49:17;3.93;;;0.80;;
80344;SDS011;69658;44.498;0.166;2023-08-06T16:54:51;2.13;;;0.70;;
80344;SDS011;69658;44.498;0.166;2023-08-06T17:00:24;3.77;;;0.60;;
80344;SDS011;69658;44.498;0.166;2023-08-06T17:05:57;3.43;;;0.70;;
80344;SDS011;69658;44.498;0.166;2023-08-06T17:11:30;2.90;;;0.57;;
80344;SDS011;69658;44.498;0.166;2023-08-06T17:17:02;2.60;;;0.87;;
80344;SDS011;69658;44.498;0.166;2023-08-06T17:22:34;2.97;;;0.93;;
80344;SDS011;69658;44.498;0.166;2023-08-06T17:28:06;4.60;;;1.07;;
80344;SDS011;69658;44.498;0.166;2023-08-06T17:33:39;1.83;;;0.50;;
80344;SDS011;69658;44.498;0.166;2023-08-06T17:39:10;2.33;;;0.60;;
80344;SDS011;69658;44.498;0.166;2023-08-06T17:44:44;4.63;;;0.83;;
80344;SDS011;69658;44.498;0.166;2023-08-06T17:50:17;4.63;;;0.97;;
80344;SDS011;69658;44.498;0.166;2023-08-06T17:55:49;2.53;;;0.80;;
80344;SDS011;69658;44.498;0.166;2023-08-06T18:01:21;2.93;;;0.70;;
80344;SDS011;69658;44.498;0.166;2023-08-06T18:06:53;4.67;;;0.90;;
80344;SDS011;69658;44.498;0.166;2023-08-06T18:12:26;2.53;;;0.63;;
80344;SDS011;69658;44.498;0.166;2023-08-06T18:17:59;4.73;;;0.60;;
80344;SDS011;69658;44.498;0.166;2023-08-06T18:23:31;4.93;;;0.93;;
80344;SDS011;69658;44.498;0.166;2023-08-06T18:29:04;4.43;;;0.50;;
80344;SDS011;69658;44.498;0.166;2023-08-06T18:34:36;5.43;;;0.80;;
80344;SDS011;69658;44.498;0.166;2023-08-06T18:40:08;3.80;;;0.70;;
80344;SDS011;69658;44.498;0.166;2023-08-06T18:45:40;2.70;;;0.53;;
80344;SDS011;69658;44.498;0.166;2023-08-06T18:51:11;1.20;;;0.37;;
80344;SDS011;69658;44.498;0.166;2023-08-06T18:56:45;1.97;;;0.47;;
80344;SDS011;69658;44.498;0.166;2023-08-06T19:02:17;1.27;;;0.27;;
80344;SDS011;69658;44.498;0.166;2023-08-06T19:07:50;4.37;;;1.03;;
80344;SDS011;69658;44.498;0.166;2023-08-06T19:13:22;5.83;;;2.43;;
80344;SDS011;69658;44.498;0.166;2023-08-06T19:18:56;7.67;;;4.67;;
80344;SDS011;69658;44.498;0.166;2023-08-06T19:24:28;6.50;;;1.50;;
80344;SDS011;69658;44.498;0.166;2023-08-06T19:30:00;4.57;;;1.10;;
80344;SDS011;69658;44.498;0.166;2023-08-06T19:35:32;2.20;;;1.03;;
80344;SDS011;69658;44.498;0.166;2023-08-06T19:41:04;3.90;;;0.73;;
80344;SDS011;69658;44.498;0.166;2023-08-06T19:46:36;4.13;;;0.87;;
80344;SDS011;69658;44.498;0.166;2023-08-06T19:52:08;2.40;;;0.60;;
80344;SDS011;69658;44.498;0.166;2023-08-06T19:57:41;3.33;;;0.80;;
80344;SDS011;69658;44.498;0.166;2023-08-06T20:03:14;1.03;;;0.57;;
80344;SDS011;69658;44.498;0.166;2023-08-06T20:08:46;2.53;;;1.47;;
80344;SDS011;69658;44.498;0.166;2023-08-06T20:14:20;1.97;;;1.00;;
80344;SDS011;69658;44.498;0.166;2023-08-06T20:19:52;1.90;;;0.90;;
80344;SDS011;69658;44.498;0.166;2023-08-06T20:25:25;3.23;;;1.00;;
80344;SDS011;69658;44.498;0.166;2023-08-06T20:30:57;3.43;;;0.83;;
80344;SDS011;69658;44.498;0.166;2023-08-06T20:36:29;2.83;;;0.90;;
80344;SDS011;69658;44.498;0.166;2023-08-06T20:42:01;2.93;;;0.60;;
80344;SDS011;69658;44.498;0.166;2023-08-06T20:47:34;1.17;;;0.47;;
80344;SDS011;69658;44.498;0.166;2023-08-06T20:53:07;1.47;;;0.53;;
80344;SDS011;69658;44.498;0.166;2023-08-06T20:58:39;5.43;;;1.00;;
80344;SDS011;69658;44.498;0.166;2023-08-06T21:04:12;3.83;;;0.73;;
80344;SDS011;69658;44.498;0.166;2023-08-06T21:09:45;7.63;;;0.93;;
80344;SDS011;69658;44.498;0.166;2023-08-06T21:15:18;2.33;;;0.67;;
80344;SDS011;69658;44.498;0.166;2023-08-06T21:20:52;4.60;;;0.70;;
80344;SDS011;69658;44.498;0.166;2023-08-06T21:26:23;2.43;;;0.50;;
80344;SDS011;69658;44.498;0.166;2023-08-06T21:31:57;1.73;;;0.60;;
80344;SDS011;69658;44.498;0.166;2023-08-06T21:37:28;4.03;;;1.50;;
80344;SDS011;69658;44.498;0.166;2023-08-06T21:43:01;4.80;;;0.60;;
80344;SDS011;69658;44.498;0.166;2023-08-06T21:48:34;2.73;;;0.50;;
80344;SDS011;69658;44.498;0.166;2023-08-06T21:54:07;1.47;;;0.70;;
80344;SDS011;69658;44.498;0.166;2023-08-06T21:59:40;3.77;;;0.90;;
80344;SDS011;69658;44.498;0.166;2023-08-06T22:05:14;1.83;;;0.43;;
80344;SDS011;69658;44.498;0.166;2023-08-06T22:10:47;2.30;;;0.67;;
80344;SDS011;69658;44.498;0.166;2023-08-06T22:16:20;2.73;;;0.40;;
80344;SDS011;69658;44.498;0.166;2023-08-06T22:21:53;3.40;;;0.40;;
80344;SDS011;69658;44.498;0.166;2023-08-06T22:27:26;1.17;;;0.30;;
80344;SDS011;69658;44.498;0.166;2023-08-06T22:32:58;1.33;;;0.30;;
80344;SDS011;69658;44.498;0.166;2023-08-06T22:38:30;4.17;;;0.70;;
80344;SDS011;69658;44.498;0.166;2023-08-06T22:44:03;2.23;;;0.40;;
80344;SDS011;69658;44.498;0.166;2023-08-06T22:49:38;3.37;;;0.47;;
80344;SDS011;69658;44.498;0.166;2023-08-06T22:55:09;3.73;;;0.47;;
80344;SDS011;69658;44.498;0.166;2023-08-06T23:00:43;1.73;;;0.50;;
80344;SDS011;69658;44.498;0.166;2023-08-06T23:06:15;1.53;;;0.50;;
80344;SDS011;69658;44.498;0.166;2023-08-06T23:11:48;1.97;;;0.33;;
80344;SDS011;69658;44.498;0.166;2023-08-06T23:17:20;1.60;;;0.30;;
80344;SDS011;69658;44.498;0.166;2023-08-06T23:22:52;1.83;;;0.50;;
80344;SDS011;69658;44.498;0.166;2023-08-06T23:28:26;1.00;;;0.40;;
80344;SDS011;69658;44.498;0.166;2023-08-06T23:33:59;0.30;;;0.20;;
80344;SDS011;69658;44.498;0.166;2023-08-06T23:39:32;4.53;;;0.53;;
80344;SDS011;69658;44.498;0.166;2023-08-06T23:45:04;0.73;;;0.33;;
80344;SDS011;69658;44.498;0.166;2023-08-06T23:50:37;2.47;;;0.40;;
80344;SDS011;69658;44.498;0.166;2023-08-06T23:56:10;3.13;;;0.40;;
